createdAt,value
2019-02-25T00:02:05.859Z,16.07
2019-02-25T00:04:39.460Z,16.00
2019-02-25T00:07:19.662Z,15.88
2019-02-25T00:09:56.570Z,16.90
2019-02-25T00:12:25.214Z,15.70
2019-02-25T00:14:53.882Z,17.05
2019-02-25T00:17:22.936Z,14.35
2019-02-25T00:20:08.441Z,14.70
2019-02-25T00:22:29.384Z,16.12
2019-02-25T00:24:58.396Z,15.50
2019-02-25T00:27:31.635Z,13.85
2019-02-25T00:30:00.298Z,13.62
2019-02-25T00:32:28.977Z,16.07
2019-02-25T00:34:57.886Z,16.37
2019-02-25T00:37:26.970Z,15.50
2019-02-25T00:39:55.487Z,13.60
2019-02-25T00:42:23.958Z,15.95
2019-02-25T00:44:52.860Z,15.43
2019-02-25T00:47:21.409Z,15.25
2019-02-25T00:49:49.988Z,14.50
2019-02-25T00:52:18.520Z,15.72
2019-02-25T00:54:47.218Z,14.90
2019-02-25T00:57:15.839Z,15.43
2019-02-25T00:59:44.315Z,14.90
2019-02-25T01:02:12.912Z,15.50
2019-02-25T01:04:41.528Z,15.20
2019-02-25T01:07:10.152Z,14.73
2019-02-25T01:09:38.638Z,14.15
2019-02-25T01:12:08.178Z,15.13
2019-02-25T01:14:36.726Z,14.28
2019-02-25T01:17:05.398Z,13.85
2019-02-25T01:19:33.854Z,16.45
2019-02-25T01:22:02.348Z,15.05
2019-02-25T01:24:30.816Z,15.13
2019-02-25T01:26:59.279Z,14.95
2019-02-25T01:29:27.825Z,15.85
2019-02-25T01:31:56.299Z,14.55
2019-02-25T01:34:26.860Z,13.83
2019-02-25T01:36:55.357Z,14.58
2019-02-25T01:39:23.843Z,14.75
2019-02-25T01:41:52.311Z,14.68
2019-02-25T01:44:20.792Z,14.55
2019-02-25T01:46:49.266Z,14.65
2019-02-25T01:49:17.774Z,13.40
2019-02-25T01:51:47.124Z,16.12
2019-02-25T01:54:15.609Z,14.98
2019-02-25T01:56:44.087Z,14.38
2019-02-25T01:59:12.594Z,15.65
2019-02-25T02:01:41.079Z,14.30
2019-02-25T02:04:09.553Z,14.90
2019-02-25T02:06:38.042Z,13.95
2019-02-25T02:09:07.431Z,13.98
2019-02-25T02:11:35.988Z,14.28
2019-02-25T02:14:04.688Z,15.32
2019-02-25T02:16:33.275Z,15.45
2019-02-25T02:19:01.757Z,14.20
2019-02-25T02:21:30.236Z,15.03
2019-02-25T02:23:58.777Z,13.80
2019-02-25T02:26:27.243Z,14.05
2019-02-25T02:28:55.711Z,13.80
2019-02-25T02:31:24.196Z,13.68
2019-02-25T02:33:52.669Z,13.05
2019-02-25T02:36:21.151Z,14.33
2019-02-25T02:38:49.689Z,13.98
2019-02-25T02:41:18.232Z,14.20
2019-02-25T02:43:46.708Z,13.90
2019-02-25T02:46:27.159Z,13.25
2019-02-25T02:48:58.978Z,14.80
2019-02-25T02:51:27.523Z,13.55
2019-02-25T02:53:56.061Z,13.80
2019-02-25T02:56:24.535Z,13.22
2019-02-25T02:58:53.003Z,13.88
2019-02-25T03:01:21.487Z,14.68
2019-02-25T03:03:50.092Z,13.62
2019-02-25T03:06:18.576Z,14.47
2019-02-25T03:08:47.045Z,15.53
2019-02-25T03:11:15.516Z,14.13
2019-02-25T03:13:43.997Z,12.90
2019-02-25T03:16:12.543Z,12.03
2019-02-25T03:18:41.009Z,12.93
2019-02-25T03:21:09.567Z,13.60
2019-02-25T03:23:38.043Z,13.55
2019-02-25T03:26:06.564Z,13.93
2019-02-25T03:28:35.038Z,13.65
2019-02-25T03:31:03.682Z,12.30
2019-02-25T03:33:32.186Z,13.98
2019-02-25T03:36:00.685Z,14.30
2019-02-25T03:38:29.163Z,14.83
2019-02-25T03:40:57.757Z,12.30
2019-02-25T03:43:26.220Z,14.13
2019-02-25T03:45:54.710Z,13.60
2019-02-25T03:48:23.192Z,13.35
2019-02-25T03:50:51.668Z,13.25
2019-02-25T03:53:20.134Z,13.65
2019-02-25T03:55:48.947Z,13.03
2019-02-25T03:58:17.508Z,14.23
2019-02-25T04:00:46.042Z,14.25
2019-02-25T04:03:14.576Z,12.40
2019-02-25T04:05:43.247Z,14.07
2019-02-25T04:08:11.857Z,12.40
2019-02-25T04:10:40.390Z,12.47
2019-02-25T04:13:08.882Z,13.88
2019-02-25T04:15:39.003Z,12.65
2019-02-25T04:18:07.561Z,14.53
2019-02-25T04:20:36.095Z,12.37
2019-02-25T04:23:04.564Z,11.80
2019-02-25T04:25:33.027Z,10.98
2019-02-25T04:28:01.514Z,12.75
2019-02-25T04:30:30.053Z,13.20
2019-02-25T04:32:58.629Z,12.30
2019-02-25T04:35:27.179Z,11.50
2019-02-25T04:37:55.640Z,11.50
2019-02-25T04:40:24.120Z,11.70
2019-02-25T04:42:52.609Z,10.85
2019-02-25T04:45:21.564Z,11.28
2019-02-25T04:47:50.048Z,11.35
2019-02-25T04:50:18.601Z,11.05
2019-02-25T04:52:47.139Z,11.43
2019-02-25T04:55:15.991Z,10.40
2019-02-25T04:57:44.547Z,11.43
2019-02-25T05:00:15.552Z,10.90
2019-02-25T05:02:44.102Z,10.85
2019-02-25T05:05:12.568Z,10.88
2019-02-25T05:07:41.036Z,10.75
2019-02-25T05:10:11.853Z,11.38
2019-02-25T05:12:42.041Z,10.75
2019-02-25T05:15:12.796Z,11.75
2019-02-25T05:17:42.881Z,10.82
2019-02-25T05:20:11.490Z,10.63
2019-02-25T05:22:39.990Z,11.22
2019-02-25T05:25:10.559Z,12.33
2019-02-25T05:27:39.109Z,10.65
2019-02-25T05:30:10.726Z,10.53
2019-02-25T05:32:39.205Z,9.85
2019-02-25T05:35:11.083Z,9.75
2019-02-25T05:37:42.011Z,12.20
2019-02-25T05:40:20.253Z,11.65
2019-02-25T05:42:48.754Z,11.95
2019-02-25T05:45:17.419Z,10.70
2019-02-25T05:47:45.905Z,11.35
2019-02-25T05:50:22.162Z,10.15
2019-02-25T05:52:50.724Z,10.10
2019-02-25T05:55:19.441Z,9.68
2019-02-25T05:57:47.985Z,9.30
2019-02-25T06:00:19.230Z,10.93
2019-02-25T06:02:47.879Z,9.68
2019-02-25T06:05:16.345Z,12.15
2019-02-25T06:07:46.889Z,10.50
2019-02-25T06:10:15.534Z,10.35
2019-02-25T06:12:43.999Z,11.85
2019-02-25T06:15:17.180Z,11.88
2019-02-25T06:17:45.681Z,13.13
2019-02-25T06:20:15.266Z,9.78
2019-02-25T06:22:44.177Z,11.93
2019-02-25T06:25:13.854Z,9.80
2019-02-25T06:27:42.536Z,10.45
2019-02-25T06:30:16.711Z,10.40
2019-02-25T06:32:45.248Z,11.57
2019-02-25T06:35:14.171Z,10.30
2019-02-25T06:37:42.850Z,9.00
2019-02-25T06:40:15.578Z,10.63
2019-02-25T06:42:44.352Z,10.10
2019-02-25T06:45:15.298Z,9.70
2019-02-25T06:47:43.839Z,11.43
2019-02-25T06:50:12.634Z,10.45
2019-02-25T06:52:41.097Z,10.93
2019-02-25T06:55:12.239Z,11.45
2019-02-25T06:57:40.712Z,10.75
2019-02-25T07:00:17.221Z,9.88
2019-02-25T07:02:45.691Z,11.43
2019-02-25T07:05:24.856Z,12.20
2019-02-25T07:07:55.080Z,14.43
2019-02-25T07:10:30.805Z,14.23
2019-02-25T07:13:16.950Z,14.40
2019-02-25T07:16:06.870Z,14.07
2019-02-25T07:18:52.152Z,14.07
2019-02-25T07:21:22.288Z,13.08
2019-02-25T07:24:08.617Z,12.23
2019-02-25T07:26:44.925Z,16.70
2019-02-25T07:29:26.956Z,15.40
2019-02-25T07:31:57.233Z,16.05
2019-02-25T07:34:27.354Z,15.43
2019-02-25T07:37:03.324Z,16.20
2019-02-25T07:39:36.527Z,15.25
2019-02-25T07:42:12.854Z,13.78
2019-02-25T07:44:48.985Z,15.53
2019-02-25T07:47:22.062Z,14.95
2019-02-25T07:49:58.138Z,14.43
2019-02-25T07:52:31.190Z,14.40
2019-02-25T07:55:04.401Z,15.08
2019-02-25T07:57:39.040Z,14.93
2019-02-25T08:00:17.252Z,13.22
2019-02-25T08:02:50.476Z,14.43
2019-02-25T08:05:35.730Z,14.47
2019-02-25T08:08:47.052Z,12.85
2019-02-25T08:21:38.496Z,13.55
2019-02-25T08:24:08.619Z,13.03
2019-02-25T08:26:44.758Z,12.90
2019-02-25T08:36:37.424Z,12.93
2019-02-25T08:39:11.288Z,12.50
2019-02-25T08:41:47.198Z,12.30
2019-02-25T08:44:17.399Z,14.00
2019-02-25T08:46:47.690Z,13.93
2019-02-25T08:49:21.097Z,14.57
2019-02-25T08:51:49.642Z,15.17
2019-02-25T08:54:18.900Z,14.53
2019-02-25T08:56:47.445Z,12.97
2019-02-25T08:59:15.931Z,13.27
2019-02-25T09:01:44.449Z,13.43
2019-02-25T09:04:12.941Z,12.50
2019-02-25T09:06:41.543Z,12.50
2019-02-25T09:09:10.101Z,12.30
2019-02-25T09:11:39.042Z,13.67
2019-02-25T09:14:07.973Z,12.90
2019-02-25T09:16:36.565Z,14.90
2019-02-25T09:19:05.039Z,12.20
2019-02-25T09:21:33.544Z,12.33
2019-02-25T09:24:02.023Z,13.50
2019-02-25T09:26:30.575Z,13.70
2019-02-25T09:32:08.549Z,12.07
2019-02-25T09:34:38.005Z,12.30
2019-02-25T09:37:12.158Z,13.90
2019-02-25T09:39:51.903Z,12.87
2019-02-25T09:42:41.499Z,12.20
2019-02-25T09:45:14.449Z,13.87
2019-02-25T09:47:43.071Z,12.20
2019-02-25T09:50:17.080Z,11.70
2019-02-25T09:52:45.699Z,11.93
2019-02-25T09:55:14.899Z,12.13
2019-02-25T09:57:43.440Z,11.53
2019-02-25T10:00:22.217Z,12.70
2019-02-25T10:02:50.772Z,12.80
2019-02-25T10:05:19.239Z,12.60
2019-02-25T10:07:47.964Z,12.00
2019-02-25T10:10:18.120Z,12.90
2019-02-25T10:12:46.787Z,12.07
2019-02-25T10:15:28.378Z,11.77
2019-02-25T10:17:56.973Z,11.63
2019-02-25T10:20:27.647Z,11.83
2019-02-25T10:22:56.222Z,11.73
2019-02-25T10:25:24.824Z,11.30
2019-02-25T10:27:53.361Z,11.60
2019-02-25T10:30:21.944Z,11.90
2019-02-25T10:32:50.704Z,12.00
2019-02-25T10:35:31.494Z,11.20
2019-02-25T10:38:01.043Z,11.80
2019-02-25T10:40:30.340Z,12.30
2019-02-25T10:42:58.827Z,11.60
2019-02-25T10:45:27.308Z,11.90
2019-02-25T10:47:58.683Z,12.10
2019-02-25T10:50:26.454Z,11.63
2019-02-25T10:53:03.266Z,12.60
2019-02-25T10:55:45.083Z,11.60
2019-02-25T10:58:17.055Z,11.93
2019-02-25T11:00:46.087Z,10.70
2019-02-25T11:03:15.280Z,12.63
2019-02-25T11:05:45.384Z,12.40
2019-02-25T11:08:15.538Z,11.93
2019-02-25T11:10:48.678Z,11.33
2019-02-25T11:13:18.411Z,12.47
2019-02-25T11:15:48.397Z,12.20
2019-02-25T11:18:19.173Z,12.67
2019-02-25T11:20:47.316Z,12.17
2019-02-25T11:23:17.604Z,10.60
2019-02-25T11:25:46.501Z,12.10
2019-02-25T11:28:24.895Z,11.93
2019-02-25T11:30:47.150Z,11.80
2019-02-25T11:33:15.600Z,12.10
2019-02-25T11:35:45.806Z,13.07
2019-02-25T11:38:14.796Z,12.80
2019-02-25T11:40:43.281Z,12.90
2019-02-25T11:43:13.367Z,11.70
2019-02-25T11:45:41.948Z,10.77
2019-02-25T11:48:10.590Z,10.17
2019-02-25T11:50:39.074Z,10.80
2019-02-25T11:53:07.547Z,11.30
2019-02-25T11:55:36.111Z,11.03
2019-02-25T11:58:04.644Z,9.27
2019-02-25T12:00:33.396Z,9.67
2019-02-25T12:03:01.890Z,9.63
2019-02-25T12:05:30.498Z,9.13
2019-02-25T12:07:58.956Z,10.00
2019-02-25T12:10:27.438Z,14.90
2019-02-25T12:12:55.897Z,10.17
2019-02-25T12:15:24.455Z,9.50
2019-02-25T12:17:52.928Z,9.77
2019-02-25T12:20:21.388Z,10.10
2019-02-25T12:22:49.844Z,10.60
2019-02-25T12:25:22.464Z,9.60
2019-02-25T12:27:51.016Z,10.73
2019-02-25T12:30:24.592Z,8.43
2019-02-25T12:32:53.245Z,9.80
2019-02-25T12:35:21.771Z,8.90
2019-02-25T12:37:50.247Z,8.13
2019-02-25T12:40:19.354Z,9.80
2019-02-25T12:42:47.825Z,9.60
2019-02-25T12:45:16.850Z,9.03
2019-02-25T12:47:45.418Z,7.93
2019-02-25T12:50:16.185Z,9.30
2019-02-25T12:52:44.658Z,9.33
2019-02-25T12:55:17.196Z,8.90
2019-02-25T12:57:45.754Z,9.47
2019-02-25T13:00:17.954Z,9.70
2019-02-25T13:02:46.480Z,9.33
2019-02-25T13:05:17.184Z,8.90
2019-02-25T13:07:45.667Z,10.07
2019-02-25T13:10:15.766Z,9.27
2019-02-25T13:12:44.364Z,10.07
2019-02-25T13:15:24.623Z,8.90
2019-02-25T13:17:53.103Z,8.13
2019-02-25T13:20:21.571Z,9.53
2019-02-25T13:22:50.048Z,9.47
2019-02-25T13:25:24.405Z,9.53
2019-02-25T13:27:54.384Z,8.87
2019-02-25T13:30:23.108Z,9.40
2019-02-25T13:32:51.673Z,8.17
2019-02-25T13:35:20.227Z,8.90
2019-02-25T13:37:48.859Z,8.90
2019-02-25T13:40:18.130Z,8.57
2019-02-25T13:42:46.662Z,8.90
2019-02-25T13:45:21.916Z,9.13
2019-02-25T13:47:50.469Z,8.33
2019-02-25T13:50:19.866Z,8.30
2019-02-25T13:52:49.062Z,8.33
2019-02-25T13:55:19.781Z,8.93
2019-02-25T13:57:48.337Z,7.60
2019-02-25T14:00:29.148Z,9.03
2019-02-25T14:02:57.834Z,8.60
2019-02-25T14:05:26.464Z,8.80
2019-02-25T14:07:55.034Z,10.53
2019-02-25T14:10:23.669Z,9.00
2019-02-25T14:12:52.521Z,9.50
2019-02-25T14:15:23.318Z,9.73
2019-02-25T14:17:51.922Z,10.60
2019-02-25T14:20:22.692Z,9.50
2019-02-25T14:22:51.342Z,9.07
2019-02-25T14:25:35.708Z,9.80
2019-02-25T14:28:07.854Z,8.43
2019-02-25T14:30:36.064Z,9.00
2019-02-25T14:33:04.696Z,9.57
2019-02-25T14:35:33.808Z,7.47
2019-02-25T14:38:14.742Z,8.20
2019-02-25T14:40:42.289Z,7.50
2019-02-25T14:43:14.746Z,7.80
2019-02-25T14:45:44.421Z,9.40
2019-02-25T14:48:15.397Z,8.13
2019-02-25T14:50:43.708Z,8.10
2019-02-25T14:53:14.425Z,8.50
2019-02-25T14:55:44.831Z,8.10
2019-02-25T14:58:14.909Z,7.40
2019-02-25T15:00:42.876Z,7.47
2019-02-25T15:03:11.574Z,8.53
2019-02-25T15:05:40.212Z,7.27
2019-02-25T15:08:10.090Z,8.47
2019-02-25T15:10:40.687Z,7.20
2019-02-25T15:13:10.550Z,8.33
2019-02-25T15:15:41.163Z,7.73
2019-02-25T15:18:09.522Z,7.73
2019-02-25T15:20:38.070Z,8.33
2019-02-25T15:23:07.485Z,8.90
2019-02-25T15:25:40.267Z,7.20
2019-02-25T15:28:09.369Z,7.80
2019-02-25T15:30:36.758Z,7.40
2019-02-25T15:33:05.588Z,7.63
2019-02-25T15:35:35.107Z,8.10
2019-02-25T15:38:04.615Z,8.27
2019-02-25T15:40:33.284Z,6.70
2019-02-25T15:43:04.758Z,7.10
2019-02-25T15:45:37.316Z,7.70
2019-02-25T15:48:07.678Z,8.40
2019-02-25T15:50:36.584Z,6.73
2019-02-25T15:53:07.227Z,8.20
2019-02-25T15:55:35.836Z,8.63
2019-02-25T15:58:04.554Z,7.80
2019-02-25T16:00:34.971Z,8.23
2019-02-25T16:03:06.164Z,8.40
2019-02-25T16:05:36.814Z,7.73
2019-02-25T16:08:05.846Z,9.17
2019-02-25T16:10:34.561Z,8.03
2019-02-25T16:13:05.922Z,8.50
2019-02-25T16:15:33.485Z,9.20
2019-02-25T16:18:02.586Z,9.17
2019-02-25T16:20:32.482Z,8.90
2019-02-25T16:23:02.802Z,10.27
2019-02-25T16:25:32.750Z,10.30
2019-02-25T16:28:02.464Z,11.07
2019-02-25T16:30:31.305Z,10.03
2019-02-25T16:33:01.827Z,9.37
2019-02-25T16:35:30.065Z,9.60
2019-02-25T16:38:00.274Z,9.47
2019-02-25T16:40:30.868Z,10.60
2019-02-25T16:42:59.831Z,10.40
2019-02-25T16:45:34.840Z,9.80
2019-02-25T16:47:59.611Z,10.10
2019-02-25T16:50:28.479Z,9.77
2019-02-25T16:52:57.211Z,10.10
2019-02-25T16:55:27.762Z,8.90
2019-02-25T16:57:56.586Z,10.13
2019-02-25T17:00:27.830Z,10.37
2019-02-25T17:02:59.416Z,9.80
2019-02-25T17:05:27.891Z,9.60
2019-02-25T17:07:56.656Z,9.93
2019-02-25T17:10:29.692Z,9.93
2019-02-25T17:12:58.381Z,10.60
2019-02-25T17:15:27.391Z,11.17
2019-02-25T17:17:58.330Z,10.53
2019-02-25T17:20:28.033Z,10.10
2019-02-25T17:22:56.423Z,10.60
2019-02-25T17:25:26.943Z,10.20
2019-02-25T17:27:55.297Z,11.47
2019-02-25T17:30:28.529Z,9.93
2019-02-25T17:32:57.306Z,9.90
2019-02-25T17:35:28.322Z,9.60
2019-02-25T17:37:58.368Z,10.50
2019-02-25T17:40:26.499Z,9.90
2019-02-25T17:42:56.340Z,10.23
2019-02-25T17:45:32.425Z,11.57
2019-02-25T17:48:03.147Z,11.13
2019-02-25T17:50:32.531Z,10.00
2019-02-25T17:53:01.497Z,9.57
2019-02-25T17:55:32.234Z,11.00
2019-02-25T17:58:01.416Z,11.03
2019-02-25T18:00:34.992Z,9.93
2019-02-25T18:03:03.682Z,10.63
2019-02-25T18:05:34.120Z,10.87
2019-02-25T18:08:03.507Z,9.80
2019-02-25T18:10:33.093Z,11.10
2019-02-25T18:13:05.980Z,10.60
2019-02-25T18:15:34.795Z,9.77
2019-02-25T18:18:07.125Z,10.77
2019-02-25T18:20:36.620Z,10.37
2019-02-25T18:23:05.559Z,9.97
2019-02-25T18:25:34.163Z,10.70
2019-02-25T18:28:04.392Z,11.77
2019-02-25T18:30:33.453Z,10.70
2019-02-25T18:33:05.010Z,11.10
2019-02-25T18:35:35.765Z,10.23
2019-02-25T18:38:04.794Z,10.30
2019-02-25T18:40:33.962Z,10.00
2019-02-25T18:43:04.400Z,9.93
2019-02-25T18:45:35.565Z,10.80
2019-02-25T18:48:04.208Z,10.30
2019-02-25T18:50:33.499Z,10.50
2019-02-25T18:53:02.096Z,10.23
2019-02-25T18:55:33.552Z,9.47
2019-02-25T18:58:01.145Z,10.70
2019-02-25T19:00:36.214Z,11.33
2019-02-25T19:03:06.308Z,11.00
2019-02-25T19:05:34.925Z,11.87
2019-02-25T19:08:09.693Z,10.93
2019-02-25T19:10:41.279Z,11.20
2019-02-25T19:13:08.226Z,11.10
2019-02-25T19:15:37.413Z,12.73
2019-02-25T19:18:06.931Z,11.63
2019-02-25T19:20:36.705Z,10.57
2019-02-25T19:23:09.478Z,11.43
2019-02-25T19:25:37.106Z,9.73
2019-02-25T19:28:06.126Z,11.50
2019-02-25T19:30:35.106Z,10.83
2019-02-25T19:33:10.848Z,11.10
2019-02-25T19:35:36.090Z,10.97
2019-02-25T19:38:05.841Z,10.60
2019-02-25T19:40:38.438Z,11.40
2019-02-25T19:43:06.028Z,12.83
2019-02-25T19:45:36.424Z,13.27
2019-02-25T19:48:07.180Z,10.90
2019-02-25T19:50:38.531Z,11.67
2019-02-25T19:53:07.637Z,11.67
2019-02-25T19:55:40.458Z,10.13
2019-02-25T19:58:06.686Z,11.80
2019-02-25T20:00:35.979Z,11.03
2019-02-25T20:03:06.113Z,11.43
2019-02-25T20:05:38.822Z,10.27
2019-02-25T20:08:05.654Z,10.53
2019-02-25T20:10:35.226Z,11.40
2019-02-25T20:13:07.741Z,9.30
2019-02-25T20:15:37.604Z,11.47
2019-02-25T20:18:06.997Z,11.47
2019-02-25T20:20:38.909Z,11.20
2019-02-25T20:23:08.609Z,12.17
2019-02-25T20:25:37.326Z,10.40
2019-02-25T20:28:06.105Z,10.90
2019-02-25T20:30:34.878Z,10.70
2019-02-25T20:33:05.857Z,11.60
2019-02-25T20:35:33.777Z,11.17
2019-02-25T20:38:03.219Z,10.33
2019-02-25T20:40:33.106Z,12.57
2019-02-25T20:43:03.103Z,11.13
2019-02-25T20:45:35.718Z,11.40
2019-02-25T20:48:05.443Z,10.63
2019-02-25T20:50:33.936Z,10.87
2019-02-25T20:53:05.690Z,11.17
2019-02-25T20:55:34.550Z,11.63
2019-02-25T20:58:02.887Z,11.93
2019-02-25T21:00:34.986Z,11.47
2019-02-25T21:03:01.701Z,11.93
2019-02-25T21:05:30.267Z,11.53
2019-02-25T21:07:59.894Z,12.37
2019-02-25T21:10:30.568Z,12.57
2019-02-25T21:13:01.874Z,12.17
2019-02-25T21:15:29.734Z,10.83
2019-02-25T21:17:59.976Z,11.60
2019-02-25T21:20:29.549Z,10.67
2019-02-25T21:23:03.591Z,11.63
2019-02-25T21:25:31.452Z,12.10
2019-02-25T21:28:02.288Z,11.40
2019-02-25T21:30:31.122Z,12.20
2019-02-25T21:33:01.909Z,11.50
2019-02-25T21:35:34.238Z,12.67
2019-02-25T21:38:00.894Z,11.70
2019-02-25T21:40:30.711Z,11.88
2019-02-25T21:42:59.707Z,10.90
2019-02-25T21:45:31.753Z,10.50
2019-02-25T21:48:01.160Z,13.50
2019-02-25T21:50:30.869Z,13.40
2019-02-25T21:52:58.871Z,11.90
2019-02-25T21:55:28.585Z,13.00
2019-02-25T21:58:00.026Z,12.80
2019-02-25T22:00:31.972Z,13.08
2019-02-25T22:02:58.087Z,12.87
2019-02-25T22:05:26.644Z,13.60
2019-02-25T22:07:57.325Z,13.97
2019-02-25T22:10:25.413Z,15.48
2019-02-25T22:12:53.881Z,13.13
2019-02-25T22:15:22.620Z,12.63
2019-02-25T22:17:53.436Z,12.80
2019-02-25T22:20:22.498Z,13.68
2019-02-25T22:22:54.530Z,13.40
2019-02-25T22:25:25.311Z,12.60
2019-02-25T22:27:53.800Z,12.40
2019-02-25T22:30:22.363Z,13.98
2019-02-25T22:32:53.011Z,14.03
2019-02-25T22:35:21.485Z,12.63
2019-02-25T22:37:52.669Z,13.60
2019-02-25T22:40:20.317Z,14.03
2019-02-25T22:42:50.430Z,14.15
2019-02-25T22:45:20.321Z,11.87
2019-02-25T22:47:48.877Z,12.75
2019-02-25T22:50:17.421Z,13.10
2019-02-25T22:52:45.898Z,12.80
2019-02-25T22:55:15.240Z,13.53
2019-02-25T22:57:46.102Z,13.35
2019-02-25T23:00:34.180Z,13.32
2019-02-25T23:03:02.846Z,12.70
2019-02-25T23:05:31.578Z,13.00
2019-02-25T23:08:00.129Z,12.53
2019-02-25T23:10:28.665Z,12.25
2019-02-25T23:12:57.299Z,13.43
2019-02-25T23:15:28.137Z,13.53
2019-02-25T23:18:05.057Z,12.90
2019-02-25T23:20:27.426Z,13.15
2019-02-25T23:22:57.375Z,13.07
2019-02-25T23:25:26.774Z,13.28
2019-02-25T23:27:55.736Z,12.73
2019-02-25T23:30:25.549Z,12.03
2019-02-25T23:32:54.576Z,13.83
2019-02-25T23:35:25.285Z,13.50
2019-02-25T23:37:54.431Z,12.73
2019-02-25T23:40:23.896Z,13.98
2019-02-25T23:42:52.364Z,12.85
2019-02-25T23:45:23.053Z,13.90
2019-02-25T23:47:55.234Z,12.30
2019-02-25T23:50:21.263Z,11.95
2019-02-25T23:52:49.811Z,12.37
2019-02-25T23:55:19.684Z,13.72
2019-02-25T23:57:48.491Z,13.20
